createdAt,value
2019-02-05T00:01:29.068Z,63.07
2019-02-05T00:03:07.016Z,62.53
2019-02-05T00:04:41.514Z,71.10
2019-02-05T00:06:15.955Z,56.10
2019-02-05T00:07:50.309Z,60.83
2019-02-05T00:09:24.700Z,89.70
2019-02-05T00:10:59.064Z,103.07
2019-02-05T00:12:33.497Z,87.73
2019-02-05T00:14:07.852Z,91.77
2019-02-05T00:15:42.247Z,106.53
2019-02-05T00:17:16.611Z,114.00
2019-02-05T00:18:51.688Z,103.70
2019-02-05T00:20:27.657Z,83.67
2019-02-05T00:22:02.049Z,79.50
2019-02-05T00:23:36.405Z,86.43
2019-02-05T00:25:10.781Z,70.17
2019-02-05T00:26:45.137Z,71.33
2019-02-05T00:28:19.456Z,83.00
2019-02-05T00:29:53.881Z,81.67
2019-02-05T00:31:28.249Z,76.40
2019-02-05T00:33:04.297Z,70.33
2019-02-05T00:34:38.669Z,57.33
2019-02-05T00:36:13.065Z,61.70
2019-02-05T00:37:47.432Z,55.17
2019-02-05T00:39:21.789Z,57.70
2019-02-05T00:40:56.173Z,51.57
2019-02-05T00:42:30.567Z,49.13
2019-02-05T00:44:04.935Z,58.77
2019-02-05T00:45:39.491Z,47.13
2019-02-05T00:47:13.845Z,58.03
2019-02-05T00:48:48.233Z,64.13
2019-02-05T00:50:22.599Z,57.33
2019-02-05T00:51:58.469Z,54.30
2019-02-05T00:53:32.830Z,54.03
2019-02-05T00:55:10.697Z,53.37
2019-02-05T00:56:45.056Z,55.33
2019-02-05T00:58:19.419Z,67.17
2019-02-05T00:59:54.014Z,55.03
2019-02-05T01:01:28.381Z,63.13
2019-02-05T01:03:02.777Z,60.93
2019-02-05T01:04:37.177Z,88.30
2019-02-05T01:06:11.556Z,85.13
2019-02-05T01:07:45.996Z,104.63
2019-02-05T01:09:20.477Z,124.30
2019-02-05T01:10:56.640Z,85.37
2019-02-05T01:12:31.038Z,77.83
2019-02-05T01:14:05.403Z,82.23
2019-02-05T01:15:39.761Z,80.73
2019-02-05T01:17:14.124Z,75.73
2019-02-05T01:18:48.520Z,63.17
2019-02-05T01:20:23.291Z,54.90
2019-02-05T01:21:57.661Z,60.50
2019-02-05T01:23:32.216Z,56.30
2019-02-05T01:25:08.246Z,58.70
2019-02-05T01:26:42.707Z,53.73
2019-02-05T01:28:17.065Z,68.67
2019-02-05T01:29:52.940Z,71.27
2019-02-05T01:31:27.706Z,64.07
2019-02-05T01:33:02.074Z,61.30
2019-02-05T01:34:36.445Z,63.37
2019-02-05T01:36:12.323Z,69.57
2019-02-05T01:37:46.685Z,73.23
2019-02-05T01:39:21.074Z,83.37
2019-02-05T01:40:55.433Z,72.13
2019-02-05T01:42:29.800Z,63.20
2019-02-05T01:44:04.612Z,68.73
2019-02-05T01:45:38.986Z,70.20
2019-02-05T01:47:13.349Z,74.00
2019-02-05T01:48:47.712Z,79.30
2019-02-05T01:50:24.676Z,84.40
2019-02-05T01:51:59.061Z,93.93
2019-02-05T01:53:33.416Z,88.97
2019-02-05T01:55:10.013Z,82.53
2019-02-05T01:56:44.675Z,79.47
2019-02-05T01:58:19.074Z,62.93
2019-02-05T01:59:53.428Z,53.40
2019-02-05T02:01:27.856Z,56.63
2019-02-05T02:03:02.295Z,46.70
2019-02-05T02:04:36.696Z,40.67
2019-02-05T02:06:30.499Z,48.23
2019-02-05T02:08:04.981Z,44.03
2019-02-05T02:09:39.357Z,44.00
2019-02-05T02:11:13.714Z,44.97
2019-02-05T02:12:48.476Z,39.50
2019-02-05T02:14:22.860Z,41.87
2019-02-05T02:15:57.385Z,42.50
2019-02-05T02:17:31.748Z,49.43
2019-02-05T02:19:06.245Z,53.97
2019-02-05T02:20:40.674Z,56.07
2019-02-05T02:22:15.069Z,58.10
2019-02-05T02:23:49.435Z,51.83
2019-02-05T02:25:23.805Z,45.67
2019-02-05T02:26:58.233Z,45.37
2019-02-05T02:28:32.619Z,52.17
2019-02-05T02:30:21.994Z,47.07
2019-02-05T02:31:56.363Z,49.43
2019-02-05T02:33:31.019Z,68.50
2019-02-05T02:35:06.080Z,67.97
2019-02-05T02:36:40.437Z,55.70
2019-02-05T02:38:14.803Z,64.93
2019-02-05T02:39:49.241Z,68.40
2019-02-05T02:41:23.605Z,65.83
2019-02-05T02:42:57.966Z,51.03
2019-02-05T02:44:32.337Z,58.50
2019-02-05T02:46:07.203Z,56.13
2019-02-05T02:47:41.636Z,50.07
2019-02-05T02:49:16.012Z,61.13
2019-02-05T02:50:50.378Z,67.43
2019-02-05T02:52:24.738Z,75.73
2019-02-05T02:53:59.122Z,74.20
2019-02-05T02:55:33.476Z,54.57
2019-02-05T02:57:07.846Z,47.23
2019-02-05T02:58:42.215Z,46.83
2019-02-05T03:00:18.846Z,49.60
2019-02-05T03:01:53.203Z,57.07
2019-02-05T03:03:27.865Z,58.73
2019-02-05T03:05:02.258Z,47.23
2019-02-05T03:06:36.682Z,51.23
2019-02-05T03:08:12.577Z,45.83
2019-02-05T03:09:46.937Z,48.33
2019-02-05T03:11:21.321Z,51.87
2019-02-05T03:12:57.535Z,36.27
2019-02-05T03:14:31.909Z,36.73
2019-02-05T03:16:06.572Z,43.10
2019-02-05T03:17:41.050Z,48.40
2019-02-05T03:19:15.410Z,53.23
2019-02-05T03:20:50.077Z,46.87
2019-02-05T03:22:24.445Z,54.13
2019-02-05T03:23:58.805Z,61.27
2019-02-05T03:25:33.188Z,51.30
2019-02-05T03:27:17.210Z,36.50
2019-02-05T03:28:43.597Z,38.67
2019-02-05T03:30:20.536Z,38.83
2019-02-05T03:31:54.911Z,44.50
2019-02-05T03:33:29.268Z,49.90
2019-02-05T03:35:05.063Z,54.30
2019-02-05T03:36:39.913Z,38.27
2019-02-05T03:38:14.579Z,37.93
2019-02-05T03:39:48.956Z,37.87
2019-02-05T03:41:23.310Z,41.80
2019-02-05T03:42:57.744Z,38.40
2019-02-05T03:44:32.097Z,43.23
2019-02-05T03:46:06.466Z,41.57
2019-02-05T03:47:40.849Z,42.77
2019-02-05T03:49:15.251Z,46.03
2019-02-05T03:50:51.665Z,46.70
2019-02-05T03:52:26.965Z,39.50
2019-02-05T03:54:28.174Z,46.43
2019-02-05T03:56:05.794Z,42.47
2019-02-05T03:57:49.402Z,41.60
2019-02-05T03:59:29.981Z,40.00
2019-02-05T04:01:13.349Z,40.03
2019-02-05T04:02:53.826Z,40.57
2019-02-05T04:04:31.445Z,45.17
2019-02-05T04:06:24.345Z,42.53
2019-02-05T04:08:18.302Z,42.80
2019-02-05T04:10:01.687Z,35.80
2019-02-05T04:12:01.699Z,42.67
2019-02-05T04:13:47.336Z,38.23
2019-02-05T04:15:36.818Z,37.27
2019-02-05T04:17:23.696Z,35.20
2019-02-05T04:19:10.069Z,37.47
2019-02-05T04:20:53.459Z,42.47
2019-02-05T04:22:52.528Z,42.93
2019-02-05T04:24:53.216Z,40.03
2019-02-05T04:26:33.788Z,37.73
2019-02-05T04:28:19.863Z,39.47
2019-02-05T04:30:00.088Z,38.23
2019-02-05T04:31:43.188Z,38.10
2019-02-05T04:33:37.473Z,36.73
2019-02-05T04:35:20.607Z,36.73
2019-02-05T04:37:06.917Z,36.90
2019-02-05T04:38:47.250Z,36.57
2019-02-05T04:40:30.688Z,35.97
2019-02-05T04:42:23.105Z,35.77
2019-02-05T04:44:15.793Z,31.07
2019-02-05T04:45:56.128Z,35.28
2019-02-05T04:47:36.821Z,33.17
2019-02-05T04:49:46.046Z,35.63
2019-02-05T04:51:41.424Z,38.57
2019-02-05T04:53:24.942Z,34.93
2019-02-05T04:55:14.738Z,37.70
2019-02-05T04:57:07.199Z,34.33
2019-02-05T04:58:47.759Z,37.27
2019-02-05T05:00:40.027Z,37.53
2019-02-05T05:02:47.225Z,39.37
2019-02-05T05:04:27.568Z,32.47
2019-02-05T05:06:23.571Z,36.83
2019-02-05T05:08:06.925Z,34.80
2019-02-05T05:09:58.146Z,36.83
2019-02-05T05:11:32.501Z,34.97
2019-02-05T05:13:06.872Z,37.17
2019-02-05T05:14:41.238Z,37.03
2019-02-05T05:16:15.645Z,38.60
2019-02-05T05:17:49.997Z,39.27
2019-02-05T05:19:24.373Z,39.53
2019-02-05T05:20:58.734Z,42.40
2019-02-05T05:22:33.125Z,45.70
2019-02-05T05:24:07.492Z,39.48
2019-02-05T05:25:41.854Z,36.10
2019-02-05T05:27:17.052Z,34.57
2019-02-05T05:28:51.762Z,42.33
2019-02-05T05:30:26.116Z,33.80
2019-02-05T05:32:00.474Z,37.60
2019-02-05T05:33:34.834Z,36.63
2019-02-05T05:35:09.974Z,40.03
2019-02-05T05:36:49.299Z,38.87
2019-02-05T05:38:23.653Z,41.23
2019-02-05T05:39:58.015Z,42.90
2019-02-05T05:41:32.685Z,38.23
2019-02-05T05:43:08.165Z,41.40
2019-02-05T05:44:42.624Z,38.30
2019-02-05T05:46:17.498Z,39.95
2019-02-05T05:47:51.861Z,39.73
2019-02-05T05:49:26.249Z,39.33
2019-02-05T05:51:00.630Z,42.25
2019-02-05T05:52:34.989Z,45.80
2019-02-05T05:54:09.364Z,39.80
2019-02-05T05:55:43.760Z,42.70
2019-02-05T05:57:18.753Z,41.90
2019-02-05T05:58:55.013Z,47.83
2019-02-05T06:00:29.750Z,47.90
2019-02-05T06:02:04.192Z,47.75
2019-02-05T06:03:38.593Z,50.77
2019-02-05T06:05:14.203Z,48.47
2019-02-05T06:06:50.109Z,51.95
2019-02-05T06:08:24.484Z,49.50
2019-02-05T06:09:58.849Z,48.68
2019-02-05T06:11:33.519Z,50.07
2019-02-05T06:13:07.901Z,61.07
2019-02-05T06:14:42.272Z,48.60
2019-02-05T06:16:16.633Z,48.43
2019-02-05T06:17:51.073Z,56.37
2019-02-05T06:19:25.532Z,54.13
2019-02-05T06:21:01.507Z,57.23
2019-02-05T06:22:35.881Z,57.33
2019-02-05T06:24:11.763Z,50.63
2019-02-05T06:25:46.126Z,61.10
2019-02-05T06:27:20.493Z,66.00
2019-02-05T06:28:55.272Z,70.80
2019-02-05T06:30:29.631Z,68.37
2019-02-05T06:32:03.994Z,61.07
2019-02-05T06:33:38.375Z,52.27
2019-02-05T06:35:13.001Z,47.10
2019-02-05T06:36:47.413Z,55.17
2019-02-05T06:38:21.769Z,58.47
2019-02-05T06:39:56.142Z,59.73
2019-02-05T06:41:30.514Z,60.20
2019-02-05T06:43:04.895Z,57.17
2019-02-05T06:44:39.261Z,58.48
2019-02-05T06:46:14.113Z,66.53
2019-02-05T06:47:48.469Z,60.60
2019-02-05T06:49:22.841Z,64.57
2019-02-05T06:50:57.413Z,46.53
2019-02-05T06:52:31.776Z,63.20
2019-02-05T06:54:06.137Z,56.33
2019-02-05T06:55:40.505Z,57.03
2019-02-05T06:57:14.869Z,58.90
2019-02-05T06:58:49.236Z,61.17
2019-02-05T07:00:24.198Z,59.27
2019-02-05T07:01:58.584Z,67.00
2019-02-05T07:03:33.259Z,62.53
2019-02-05T07:05:11.667Z,62.83
2019-02-05T07:06:46.046Z,68.10
2019-02-05T07:08:20.501Z,68.63
2019-02-05T07:09:54.861Z,63.60
2019-02-05T07:11:29.220Z,58.67
2019-02-05T07:13:03.604Z,57.83
2019-02-05T07:14:38.001Z,59.83
2019-02-05T07:16:12.691Z,59.50
2019-02-05T07:17:49.698Z,56.23
2019-02-05T07:19:24.654Z,53.50
2019-02-05T07:20:59.044Z,57.20
2019-02-05T07:22:34.917Z,64.07
2019-02-05T07:24:09.294Z,59.00
2019-02-05T07:25:43.701Z,59.30
2019-02-05T07:27:19.616Z,52.65
2019-02-05T07:28:58.443Z,63.23
2019-02-05T07:30:30.368Z,62.10
2019-02-05T07:32:04.733Z,56.07
2019-02-05T07:33:39.162Z,58.10
2019-02-05T07:35:14.145Z,57.27
2019-02-05T07:36:48.518Z,59.33
2019-02-05T07:38:22.966Z,59.33
2019-02-05T07:39:57.326Z,66.83
2019-02-05T07:41:32.717Z,64.80
2019-02-05T07:43:07.074Z,58.67
2019-02-05T07:44:41.501Z,67.73
2019-02-05T07:46:15.901Z,68.37
2019-02-05T07:47:50.346Z,66.30
2019-02-05T07:49:24.709Z,84.13
2019-02-05T07:51:00.781Z,79.43
2019-02-05T07:52:35.177Z,96.97
2019-02-05T07:54:09.539Z,79.50
2019-02-05T07:55:44.133Z,75.33
2019-02-05T07:57:18.505Z,64.90
2019-02-05T07:58:52.910Z,63.13
2019-02-05T08:00:28.842Z,57.33
2019-02-05T08:02:03.221Z,61.60
2019-02-05T08:03:37.654Z,55.67
2019-02-05T08:05:20.748Z,59.47
2019-02-05T08:06:55.125Z,58.07
2019-02-05T08:08:29.696Z,64.83
2019-02-05T08:10:06.644Z,59.90
2019-02-05T08:11:41.517Z,75.83
2019-02-05T08:13:16.012Z,57.37
2019-02-05T08:14:50.369Z,60.53
2019-02-05T08:16:24.730Z,59.93
2019-02-05T08:17:59.112Z,51.30
2019-02-05T08:19:33.480Z,64.77
2019-02-05T08:21:07.851Z,63.80
2019-02-05T08:22:42.211Z,69.77
2019-02-05T08:24:16.652Z,67.03
2019-02-05T08:25:51.033Z,77.67
2019-02-05T08:27:25.437Z,77.67
2019-02-05T08:28:59.957Z,58.30
2019-02-05T08:30:43.760Z,47.00
2019-02-05T08:32:18.209Z,45.37
2019-02-05T08:33:52.590Z,85.50
2019-02-05T08:35:27.139Z,68.27
2019-02-05T08:37:01.485Z,62.27
2019-02-05T08:38:35.849Z,88.10
2019-02-05T08:40:18.837Z,54.40
2019-02-05T08:41:53.270Z,53.37
2019-02-05T08:43:27.625Z,49.80
2019-02-05T08:45:01.992Z,48.63
2019-02-05T08:46:36.349Z,56.73
2019-02-05T08:48:12.440Z,54.93
2019-02-05T08:49:46.792Z,57.50
2019-02-05T08:51:21.165Z,50.43
2019-02-05T08:52:55.520Z,48.53
2019-02-05T08:54:29.880Z,56.60
2019-02-05T08:56:04.557Z,63.13
2019-02-05T08:57:38.921Z,64.03
2019-02-05T08:59:13.264Z,53.37
2019-02-05T09:00:47.662Z,58.03
2019-02-05T09:02:22.040Z,54.87
2019-02-05T09:03:56.412Z,58.07
2019-02-05T09:05:30.776Z,59.87
2019-02-05T09:07:25.291Z,51.73
2019-02-05T09:08:50.356Z,46.87
2019-02-05T09:10:38.963Z,60.83
2019-02-05T09:12:13.524Z,58.40
2019-02-05T09:13:47.877Z,61.03
2019-02-05T09:15:29.051Z,58.70
2019-02-05T09:16:58.214Z,53.20
2019-02-05T09:18:32.569Z,54.07
2019-02-05T09:20:12.902Z,47.27
2019-02-05T09:21:47.353Z,61.07
2019-02-05T09:23:23.223Z,59.90
2019-02-05T09:24:57.573Z,61.40
2019-02-05T09:26:31.925Z,77.60
2019-02-05T09:28:06.289Z,73.80
2019-02-05T09:29:40.929Z,62.13
2019-02-05T09:31:15.332Z,60.13
2019-02-05T09:32:51.045Z,62.60
2019-02-05T09:34:25.388Z,64.47
2019-02-05T09:35:59.743Z,55.60
2019-02-05T09:37:35.197Z,49.90
2019-02-05T09:39:09.557Z,39.83
2019-02-05T09:40:43.921Z,52.23
2019-02-05T09:42:18.469Z,53.93
2019-02-05T09:43:52.834Z,49.70
2019-02-05T09:45:28.699Z,56.17
2019-02-05T09:47:03.280Z,59.50
2019-02-05T09:48:37.704Z,60.33
2019-02-05T09:50:16.625Z,55.13
2019-02-05T09:51:51.020Z,58.40
2019-02-05T09:53:25.352Z,53.30
2019-02-05T09:54:59.700Z,57.77
2019-02-05T09:56:34.060Z,59.43
2019-02-05T09:58:08.509Z,54.63
2019-02-05T09:59:45.413Z,65.27
2019-02-05T10:01:19.258Z,59.97
2019-02-05T10:02:53.616Z,61.80
2019-02-05T10:04:28.053Z,68.40
2019-02-05T10:06:02.462Z,67.73
2019-02-05T10:07:36.829Z,75.07
2019-02-05T10:09:11.181Z,77.77
2019-02-05T10:10:45.605Z,73.57
2019-02-05T10:12:19.957Z,67.03
2019-02-05T10:13:54.394Z,64.17
2019-02-05T10:15:33.752Z,73.37
2019-02-05T10:17:08.336Z,88.53
2019-02-05T10:18:45.752Z,68.10
2019-02-05T10:20:18.785Z,66.40
2019-02-05T10:21:53.177Z,74.17
2019-02-05T10:23:27.809Z,63.60
2019-02-05T10:25:02.164Z,75.43
2019-02-05T10:26:36.553Z,65.70
2019-02-05T10:28:12.668Z,66.40
2019-02-05T10:29:57.694Z,78.53
2019-02-05T10:31:22.873Z,69.97
2019-02-05T10:32:57.303Z,74.53
2019-02-05T10:34:34.275Z,74.67
2019-02-05T10:36:07.796Z,78.03
2019-02-05T10:37:42.152Z,73.83
2019-02-05T10:39:16.707Z,67.83
2019-02-05T10:40:52.576Z,70.77
2019-02-05T10:42:27.297Z,71.90
2019-02-05T10:44:01.662Z,76.10
2019-02-05T10:45:36.153Z,77.30
2019-02-05T10:47:10.809Z,82.83
2019-02-05T10:48:45.173Z,71.80
2019-02-05T10:50:21.106Z,83.37
2019-02-05T10:51:55.496Z,88.83
2019-02-05T10:53:29.922Z,70.83
2019-02-05T10:55:08.898Z,69.70
2019-02-05T10:56:43.248Z,60.37
2019-02-05T10:58:17.636Z,72.80
2019-02-05T10:59:54.337Z,69.50
2019-02-05T11:01:28.284Z,76.40
2019-02-05T11:03:05.161Z,58.63
2019-02-05T11:04:39.706Z,73.00
2019-02-05T11:06:14.049Z,91.90
2019-02-05T11:07:48.404Z,92.63
2019-02-05T11:09:22.765Z,117.57
2019-02-05T11:10:57.144Z,87.97
2019-02-05T11:12:31.510Z,76.83
2019-02-05T11:14:05.853Z,61.83
2019-02-05T11:15:40.219Z,64.47
2019-02-05T11:17:14.866Z,58.00
2019-02-05T11:18:50.757Z,79.37
2019-02-05T11:20:26.753Z,110.33
2019-02-05T11:22:01.121Z,69.83
2019-02-05T11:23:35.476Z,75.57
2019-02-05T11:25:09.902Z,85.80
2019-02-05T11:26:44.257Z,53.63
2019-02-05T11:28:18.616Z,93.27
2019-02-05T11:29:52.965Z,90.57
2019-02-05T11:31:27.432Z,74.53
2019-02-05T11:33:01.793Z,74.23
2019-02-05T11:34:36.549Z,76.13
2019-02-05T11:36:10.901Z,64.10
2019-02-05T11:37:45.285Z,70.73
2019-02-05T11:39:19.633Z,42.67
2019-02-05T11:40:54.169Z,53.03
2019-02-05T11:42:28.520Z,55.87
2019-02-05T11:44:04.854Z,44.10
2019-02-05T11:45:38.885Z,46.03
2019-02-05T11:47:13.241Z,45.37
2019-02-05T11:48:47.602Z,49.20
2019-02-05T11:50:23.660Z,49.23
2019-02-05T11:51:58.418Z,45.03
2019-02-05T11:53:32.940Z,44.23
2019-02-05T11:55:10.393Z,47.03
2019-02-05T11:56:44.816Z,53.27
2019-02-05T11:58:19.159Z,49.80
2019-02-05T11:59:53.513Z,52.37
2019-02-05T12:01:38.327Z,51.40
2019-02-05T12:03:05.021Z,53.97
2019-02-05T12:04:39.687Z,52.03
2019-02-05T12:06:14.032Z,52.37
2019-02-05T12:07:48.396Z,51.87
2019-02-05T12:09:23.322Z,47.10
2019-02-05T12:10:57.680Z,47.10
2019-02-05T12:12:32.082Z,44.50
2019-02-05T12:14:06.444Z,48.90
2019-02-05T12:15:40.805Z,53.17
2019-02-05T12:17:15.172Z,58.60
2019-02-05T12:18:49.521Z,64.43
2019-02-05T12:20:23.920Z,51.07
2019-02-05T12:21:59.909Z,57.27
2019-02-05T12:23:34.273Z,50.77
2019-02-05T12:25:20.413Z,68.40
2019-02-05T12:26:54.793Z,50.37
2019-02-05T12:28:29.314Z,56.40
2019-02-05T12:30:05.572Z,53.17
2019-02-05T12:31:39.939Z,61.87
2019-02-05T12:33:14.290Z,50.23
2019-02-05T12:34:48.962Z,53.07
2019-02-05T12:36:23.450Z,57.83
2019-02-05T12:37:57.818Z,61.00
2019-02-05T12:39:32.301Z,59.23
2019-02-05T12:41:06.653Z,57.57
2019-02-05T12:42:41.073Z,40.37
2019-02-05T12:44:15.545Z,41.30
2019-02-05T12:45:50.382Z,46.27
2019-02-05T12:47:24.800Z,42.13
2019-02-05T12:48:59.165Z,48.93
2019-02-05T12:50:36.157Z,46.93
2019-02-05T12:52:10.813Z,45.80
2019-02-05T12:53:45.192Z,50.00
2019-02-05T12:55:19.537Z,56.87
2019-02-05T12:56:53.897Z,50.40
2019-02-05T12:58:31.293Z,46.93
2019-02-05T13:00:26.627Z,53.20
2019-02-05T13:02:01.041Z,55.73
2019-02-05T13:03:35.394Z,45.77
2019-02-05T13:05:09.820Z,52.20
2019-02-05T13:06:45.713Z,50.07
2019-02-05T13:08:20.006Z,51.20
2019-02-05T13:09:57.510Z,48.23
2019-02-05T13:11:31.879Z,43.17
2019-02-05T13:13:07.197Z,46.67
2019-02-05T13:14:41.561Z,46.50
2019-02-05T13:16:16.313Z,45.20
2019-02-05T13:17:50.669Z,46.20
2019-02-05T13:19:25.045Z,42.67
2019-02-05T13:20:59.405Z,52.07
2019-02-05T13:22:33.770Z,47.73
2019-02-05T13:24:08.132Z,43.70
2019-02-05T13:25:42.520Z,44.40
2019-02-05T13:27:16.947Z,45.33
2019-02-05T13:28:51.316Z,45.50
2019-02-05T13:30:27.680Z,46.57
2019-02-05T13:32:02.124Z,48.50
2019-02-05T13:33:36.514Z,43.43
2019-02-05T13:35:11.332Z,48.07
2019-02-05T13:36:45.691Z,51.00
2019-02-05T13:38:20.043Z,49.73
2019-02-05T13:39:54.412Z,44.10
2019-02-05T13:41:29.353Z,40.50
2019-02-05T13:43:03.973Z,57.17
2019-02-05T13:44:38.329Z,53.77
2019-02-05T13:46:14.332Z,52.37
2019-02-05T13:47:48.689Z,78.07
2019-02-05T13:49:23.081Z,82.00
2019-02-05T13:50:57.442Z,141.87
2019-02-05T13:52:31.730Z,111.57
2019-02-05T13:54:07.241Z,84.23
2019-02-05T13:55:42.440Z,127.97
2019-02-05T13:57:16.901Z,74.07
2019-02-05T13:58:51.257Z,87.83
2019-02-05T14:00:40.269Z,72.57
2019-02-05T14:02:16.457Z,58.17
2019-02-05T14:03:50.813Z,69.80
2019-02-05T14:05:25.169Z,69.63
2019-02-05T14:06:59.532Z,68.73
2019-02-05T14:08:33.920Z,70.90
2019-02-05T14:10:14.061Z,59.17
2019-02-05T14:11:48.420Z,66.77
2019-02-05T14:13:22.789Z,74.67
2019-02-05T14:14:57.146Z,65.37
2019-02-05T14:16:31.505Z,70.47
2019-02-05T14:18:06.534Z,51.13
2019-02-05T14:19:40.912Z,37.47
2019-02-05T14:21:15.270Z,41.67
2019-02-05T14:22:49.625Z,54.87
2019-02-05T14:24:24.018Z,45.17
2019-02-05T14:25:59.703Z,45.83
2019-02-05T14:27:35.692Z,56.17
2019-02-05T14:29:10.045Z,51.40
2019-02-05T14:30:49.828Z,45.30
2019-02-05T14:32:24.182Z,51.77
2019-02-05T14:33:58.573Z,53.93
2019-02-05T14:35:32.948Z,63.60
2019-02-05T14:37:07.321Z,68.30
2019-02-05T14:38:41.664Z,62.93
2019-02-05T14:40:20.478Z,71.27
2019-02-05T14:41:54.840Z,61.33
2019-02-05T14:43:30.705Z,64.53
2019-02-05T14:45:08.494Z,57.23
2019-02-05T14:46:43.308Z,63.07
2019-02-05T14:48:19.484Z,79.70
2019-02-05T14:49:53.765Z,75.63
2019-02-05T14:51:28.129Z,68.03
2019-02-05T14:53:02.608Z,55.03
2019-02-05T14:54:36.956Z,63.03
2019-02-05T14:56:11.369Z,50.63
2019-02-05T14:57:45.646Z,42.80
2019-02-05T14:59:20.037Z,52.43
2019-02-05T15:00:54.598Z,49.77
2019-02-05T15:02:28.951Z,48.43
2019-02-05T15:04:05.378Z,56.97
2019-02-05T15:05:40.158Z,60.23
2019-02-05T15:07:14.555Z,105.10
2019-02-05T15:08:48.913Z,110.63
2019-02-05T15:10:23.271Z,89.80
2019-02-05T15:11:57.653Z,76.27
2019-02-05T15:13:32.209Z,62.27
2019-02-05T15:15:09.828Z,63.07
2019-02-05T15:16:44.168Z,67.33
2019-02-05T15:18:18.480Z,61.20
2019-02-05T15:19:52.829Z,54.57
2019-02-05T15:21:27.135Z,63.53
2019-02-05T15:23:01.662Z,62.53
2019-02-05T15:24:38.050Z,61.47
2019-02-05T15:26:11.996Z,63.00
2019-02-05T15:27:46.365Z,68.47
2019-02-05T15:29:20.727Z,75.80
2019-02-05T15:30:55.081Z,71.27
2019-02-05T15:32:49.365Z,76.03
2019-02-05T15:34:25.233Z,78.80
2019-02-05T15:36:04.277Z,77.87
2019-02-05T15:37:38.732Z,88.13
2019-02-05T15:39:13.153Z,88.20
2019-02-05T15:40:47.505Z,92.90
2019-02-05T15:42:21.864Z,87.93
2019-02-05T15:44:00.522Z,94.50
2019-02-05T15:45:33.777Z,92.70
2019-02-05T15:47:08.130Z,89.73
2019-02-05T15:48:42.493Z,102.03
2019-02-05T15:50:16.849Z,98.60
2019-02-05T15:51:51.210Z,99.27
2019-02-05T15:53:25.566Z,97.53
2019-02-05T15:54:59.955Z,110.60
2019-02-05T15:56:34.313Z,113.63
2019-02-05T15:58:10.180Z,113.47
2019-02-05T15:59:44.541Z,129.53
2019-02-05T16:01:20.480Z,130.50
2019-02-05T16:02:54.833Z,114.17
2019-02-05T16:04:29.212Z,120.23
2019-02-05T16:06:03.575Z,127.70
2019-02-05T16:07:37.969Z,118.17
2019-02-05T16:09:12.345Z,125.30
2019-02-05T16:10:46.739Z,120.63
2019-02-05T16:12:21.754Z,134.70
2019-02-05T16:13:56.263Z,145.20
2019-02-05T16:15:31.121Z,167.83
2019-02-05T16:17:05.519Z,170.43
2019-02-05T16:18:39.877Z,167.80
2019-02-05T16:20:18.049Z,193.43
2019-02-05T16:21:52.421Z,312.57
2019-02-05T16:23:26.827Z,319.43
2019-02-05T16:25:01.191Z,241.17
2019-02-05T16:26:35.569Z,194.00
2019-02-05T16:28:10.145Z,161.90
2019-02-05T16:29:44.516Z,173.30
2019-02-05T16:31:18.881Z,162.40
2019-02-05T16:32:53.291Z,211.03
2019-02-05T16:34:28.126Z,169.93
2019-02-05T16:36:02.484Z,166.07
2019-02-05T16:37:36.852Z,174.20
2019-02-05T16:39:11.321Z,170.33
2019-02-05T16:40:46.273Z,203.13
2019-02-05T16:42:20.644Z,223.13
2019-02-05T16:43:55.021Z,207.43
2019-02-05T16:45:30.895Z,201.33
2019-02-05T16:47:05.259Z,174.77
2019-02-05T16:48:39.661Z,180.90
2019-02-05T16:50:16.820Z,194.37
2019-02-05T16:51:51.196Z,214.60
2019-02-05T16:53:25.965Z,232.50
2019-02-05T16:55:00.594Z,225.73
2019-02-05T16:56:34.961Z,200.80
2019-02-05T16:58:09.329Z,199.27
2019-02-05T16:59:43.704Z,193.17
2019-02-05T17:01:18.105Z,187.10
2019-02-05T17:02:52.646Z,228.90
2019-02-05T17:04:27.034Z,235.30
2019-02-05T17:06:01.472Z,220.13
2019-02-05T17:07:36.209Z,210.20
2019-02-05T17:09:14.626Z,200.07
2019-02-05T17:10:49.000Z,217.07
2019-02-05T17:12:23.468Z,252.57
2019-02-05T17:13:57.913Z,253.13
2019-02-05T17:15:32.289Z,256.00
2019-02-05T17:17:06.667Z,288.40
2019-02-05T17:18:41.086Z,315.90
2019-02-05T17:20:21.288Z,275.85
2019-02-05T17:21:55.665Z,290.75
2019-02-05T17:23:30.039Z,279.83
2019-02-05T17:25:06.784Z,411.25
2019-02-05T17:26:42.673Z,438.00
2019-02-05T17:28:17.044Z,411.63
2019-02-05T17:29:52.931Z,379.43
2019-02-05T17:31:27.780Z,454.57
2019-02-05T17:33:02.278Z,413.40
2019-02-05T17:34:36.657Z,406.77
2019-02-05T17:36:11.036Z,401.33
2019-02-05T17:37:45.420Z,345.73
2019-02-05T17:39:19.785Z,300.90
2019-02-05T17:40:54.684Z,326.90
2019-02-05T17:42:29.333Z,372.27
2019-02-05T17:44:04.055Z,365.48
2019-02-05T17:45:40.235Z,441.43
2019-02-05T17:47:14.605Z,416.82
2019-02-05T17:48:49.013Z,408.87
2019-02-05T17:50:23.397Z,351.87
2019-02-05T17:51:57.770Z,394.97
2019-02-05T17:53:32.146Z,348.85
2019-02-05T17:55:09.671Z,337.93
2019-02-05T17:56:44.350Z,481.43
2019-02-05T17:58:18.825Z,465.98
2019-02-05T17:59:53.640Z,477.62
2019-02-05T18:01:29.849Z,435.67
2019-02-05T18:03:04.489Z,466.43
2019-02-05T18:04:38.932Z,476.27
2019-02-05T18:06:13.323Z,445.53
2019-02-05T18:07:47.825Z,518.80
2019-02-05T18:09:22.508Z,484.77
2019-02-05T18:10:56.892Z,465.40
2019-02-05T18:12:31.296Z,504.90
2019-02-05T18:14:05.685Z,515.67
2019-02-05T18:15:41.788Z,523.85
2019-02-05T18:17:16.201Z,509.50
2019-02-05T18:18:50.590Z,573.80
2019-02-05T18:20:25.123Z,572.87
2019-02-05T18:21:59.830Z,619.67
2019-02-05T18:23:34.217Z,615.13
2019-02-05T18:25:11.548Z,644.20
2019-02-05T18:26:47.344Z,676.93
2019-02-05T18:28:21.672Z,587.88
2019-02-05T18:29:57.557Z,552.75
2019-02-05T18:31:31.932Z,540.47
2019-02-05T18:33:07.045Z,576.87
2019-02-05T18:34:41.465Z,558.48
2019-02-05T18:36:15.856Z,549.52
2019-02-05T18:37:50.227Z,529.33
2019-02-05T18:39:24.601Z,629.83
2019-02-05T18:40:58.981Z,612.50
2019-02-05T18:42:33.366Z,622.67
2019-02-05T18:44:07.737Z,625.62
2019-02-05T18:45:43.621Z,667.55
2019-02-05T18:47:18.114Z,707.85
2019-02-05T18:48:52.505Z,682.58
2019-02-05T18:50:49.550Z,675.95
2019-02-05T18:52:23.953Z,665.25
2019-02-05T18:53:58.328Z,681.60
2019-02-05T18:55:35.782Z,656.05
2019-02-05T18:57:10.158Z,661.77
2019-02-05T18:58:44.988Z,639.05
2019-02-05T19:00:27.630Z,591.12
2019-02-05T19:02:02.025Z,517.37
2019-02-05T19:03:36.405Z,513.75
2019-02-05T19:05:11.441Z,503.27
2019-02-05T19:06:46.232Z,485.75
2019-02-05T19:08:20.610Z,456.82
2019-02-05T19:09:55.070Z,437.35
2019-02-05T19:11:29.445Z,416.08
2019-02-05T19:13:03.828Z,391.25
2019-02-05T19:14:38.229Z,365.73
2019-02-05T19:16:12.604Z,360.25
2019-02-05T19:17:47.056Z,322.02
2019-02-05T19:19:21.447Z,331.77
2019-02-05T19:20:55.830Z,331.90
2019-02-05T19:22:30.377Z,312.72
2019-02-05T19:24:06.963Z,297.93
2019-02-05T19:25:43.049Z,263.75
2019-02-05T19:27:17.442Z,274.58
2019-02-05T19:28:51.817Z,289.72
2019-02-05T19:30:27.832Z,288.27
2019-02-05T19:32:02.620Z,288.63
2019-02-05T19:33:37.010Z,267.50
2019-02-05T19:35:11.385Z,279.07
2019-02-05T19:36:45.756Z,278.07
2019-02-05T19:38:20.697Z,288.60
2019-02-05T19:39:55.089Z,288.73
2019-02-05T19:41:29.469Z,275.80
2019-02-05T19:43:03.854Z,293.58
2019-02-05T19:44:39.819Z,285.48
2019-02-05T19:46:15.830Z,290.98
2019-02-05T19:47:50.367Z,296.30
2019-02-05T19:49:26.097Z,305.50
2019-02-05T19:51:00.471Z,303.47
2019-02-05T19:52:34.905Z,292.37
2019-02-05T19:54:09.306Z,280.80
2019-02-05T19:55:43.768Z,280.93
2019-02-05T19:57:19.761Z,257.80
2019-02-05T19:58:54.525Z,241.03
2019-02-05T20:00:28.896Z,224.17
2019-02-05T20:02:03.270Z,215.43
2019-02-05T20:03:39.029Z,205.47
2019-02-05T20:05:15.089Z,216.07
2019-02-05T20:06:49.460Z,188.27
2019-02-05T20:08:26.668Z,189.43
2019-02-05T20:09:59.830Z,184.30
2019-02-05T20:11:36.041Z,180.30
2019-02-05T20:13:11.087Z,176.30
2019-02-05T20:14:45.670Z,180.60
2019-02-05T20:16:20.036Z,168.63
2019-02-05T20:17:54.444Z,167.97
2019-02-05T20:19:28.749Z,180.27
2019-02-05T20:21:04.629Z,178.87
2019-02-05T20:22:39.001Z,171.17
2019-02-05T20:24:13.869Z,165.37